Emine Anne — TCBX9 — position and weather

sailwx.info

Track history (hours):
 
Tides and Currents Weather Stations Pressure Air Temp Water Temp Dewpoint Dewpoint Depression Visibility Wind Speed Wind Dir Waves Ship Positions

Emine Anne

Last reported at 2014-Dec-19 14:34 UTC. Time now 2014-Dec-19 15:13 UTC.
Position N 44°39' E 037°55'.

Length 69 m; draft 2.4 m.

Type: Ship. MMSI: 271002305.

Date/timePositionNaut miles runAvg speedWind from/ knotsBaromVisibWave heightAir tempDewpointWater temp
2014-Dec-19 14:34N 44°39' E 037°55'0 0.0
2014-Dec-19 13:33N 44°39' E 037°55'0 0.0
2014-Dec-19 12:29N 44°39' E 037°55'0 0.0
2014-Dec-19 11:31N 44°39' E 037°55'0 0.1
2014-Dec-19 10:31N 44°39' E 037°55'0 0.0
2014-Dec-19 09:32N 44°39' E 037°55'0 0.0
2014-Dec-19 08:31N 44°39' E 037°55'0 0.0
2014-Dec-19 07:33N 44°39' E 037°55'0 0.0
2014-Dec-19 06:27N 44°39' E 037°55'0 0.0
2014-Dec-19 05:32N 44°39' E 037°55'0 0.0
2014-Dec-19 04:32N 44°39' E 037°55'4 4.5
2014-Dec-19 03:33N 44°35' E 037°51'10 9.9
2014-Dec-19 02:33N 44°26' E 037°45'406 9.0
2014-Dec-17 05:33N 41°17' E 029°36'1010.0
2014-Dec-17 04:32N 41°16' E 029°22'24 7.9
2014-Dec-17 01:31N 40°59' E 028°60'4 4.3
2014-Dec-17 00:31N 40°56' E 028°56'3 2.3
2014-Dec-16 23:16N 40°59' E 028°56'0 0.0
2014-Dec-16 20:34N 40°59' E 028°56'0 0.0
2014-Dec-16 19:22N 40°59' E 028°56'0 0.0
2014-Dec-16 18:29N 40°59' E 028°56'0 0.0
2014-Dec-16 16:04N 40°59' E 028°56'0 0.1
2014-Dec-16 15:09N 40°59' E 028°56'0 0.0
2014-Dec-16 14:24N 40°59' E 028°56'0 0.1
2014-Dec-16 13:16N 40°59' E 028°56'0 0.0
2014-Dec-16 12:18N 40°59' E 028°56'0 0.0
2014-Dec-16 11:33N 40°59' E 028°56'0 0.0
2014-Dec-16 10:28N 40°59' E 028°56'0 0.0
2014-Dec-16 06:28N 40°59' E 028°56'  
2014-Dec-13 09:04N 37°51' E 026°28'12 8.0
2014-Dec-13 07:33N 37°40' E 026°34'19 8.5
2014-Dec-13 05:18N 37°27' E 026°53'17 0.6
2014-Dec-12 03:28N 37°40' E 026°39'  
Track history (hours):
 
Tides and Currents Weather Stations Pressure Air Temp Water Temp Dewpoint Dewpoint Depression Visibility Wind Speed Wind Dir Waves Ship Positions

Emine Anne

Last reported at 2014-Dec-19 14:34 UTC. Time now 2014-Dec-19 15:13 UTC.
Position N 44°39' E 037°55'.

Length 69 m; draft 2.4 m.

Type: Ship. MMSI: 271002305.

Date/timePositionNaut miles runAvg speedWind from/ knotsBaromVisibWave heightAir tempDewpointWater temp
2014-Dec-19 14:34N 44°39' E 037°55'0 0.0
2014-Dec-19 13:33N 44°39' E 037°55'0 0.0
2014-Dec-19 12:29N 44°39' E 037°55'0 0.0
2014-Dec-19 11:31N 44°39' E 037°55'0 0.1
2014-Dec-19 10:31N 44°39' E 037°55'0 0.0
2014-Dec-19 09:32N 44°39' E 037°55'0 0.0
2014-Dec-19 08:31N 44°39' E 037°55'0 0.0
2014-Dec-19 07:33N 44°39' E 037°55'0 0.0
2014-Dec-19 06:27N 44°39' E 037°55'0 0.0
2014-Dec-19 05:32N 44°39' E 037°55'0 0.0
2014-Dec-19 04:32N 44°39' E 037°55'4 4.5
2014-Dec-19 03:33N 44°35' E 037°51'10 9.9
2014-Dec-19 02:33N 44°26' E 037°45'406 9.0
2014-Dec-17 05:33N 41°17' E 029°36'1010.0
2014-Dec-17 04:32N 41°16' E 029°22'24 7.9
2014-Dec-17 01:31N 40°59' E 028°60'4 4.3
2014-Dec-17 00:31N 40°56' E 028°56'3 2.3
2014-Dec-16 23:16N 40°59' E 028°56'0 0.0
2014-Dec-16 20:34N 40°59' E 028°56'0 0.0
2014-Dec-16 19:22N 40°59' E 028°56'0 0.0
2014-Dec-16 18:29N 40°59' E 028°56'0 0.0
2014-Dec-16 16:04N 40°59' E 028°56'0 0.1
2014-Dec-16 15:09N 40°59' E 028°56'0 0.0
2014-Dec-16 14:24N 40°59' E 028°56'0 0.1
2014-Dec-16 13:16N 40°59' E 028°56'0 0.0
2014-Dec-16 12:18N 40°59' E 028°56'0 0.0
2014-Dec-16 11:33N 40°59' E 028°56'0 0.0
2014-Dec-16 10:28N 40°59' E 028°56'0 0.0
2014-Dec-16 06:28N 40°59' E 028°56'  
2014-Dec-13 09:04N 37°51' E 026°28'12 8.0
2014-Dec-13 07:33N 37°40' E 026°34'19 8.5
2014-Dec-13 05:18N 37°27' E 026°53'17 0.6
2014-Dec-12 03:28N 37°40' E 026°39'  

Dump ship's entire track history